Time;durP1;ratioP1;P1;durP2;ratioP2;P2;SDS_P1;SDS_P2;PMS_P1;PMS_P2;Temp;Humidity;BMP_temperature;BMP_pressure;BME280_temperature;BME280_humidity;BME280_pressure;Samples;Min_cycle;Max_cycle;Signal;HPM_P1;HPM_P2
2021/10/18 11:20:13;;;;;;;13.40;9.20;;;16.30;99.90;;;;;;2625158;53;21191;31
2021/10/18 11:22:44;;;;;;;14.80;9.63;;;14.00;99.90;;;;;;2585520;54;20947;31
2021/10/18 11:25:21;;;;;;;17.60;9.20;;;13.60;99.90;;;;;;2585791;54;20030;31
2021/10/18 11:27:57;;;;;;;19.95;9.75;;;13.40;99.90;;;;;;2586079;46;20065;31
2021/10/18 11:30:33;;;;;;;18.90;10.40;;;13.20;99.90;;;;;;2586372;46;20924;31
2021/10/18 11:33:04;;;;;;;14.80;10.30;;;13.10;99.90;;;;;;2585508;54;20246;31
2021/10/18 11:35:33;;;;;;;19.90;9.90;;;12.90;99.90;;;;;;2586138;46;20894;31
2021/10/18 11:38:14;;;;;;;17.50;9.32;;;12.90;99.90;;;;;;2586367;46;20808;31
2021/10/18 11:40:48;;;;;;;11.70;7.85;;;12.80;99.90;;;;;;2585087;54;20030;31
2021/10/18 11:43:22;;;;;;;13.13;7.73;;;12.70;99.90;;;;;;2585692;54;20027;31
2021/10/18 11:45:54;;;;;;;12.38;7.22;;;12.70;99.90;;;;;;2586297;47;20033;31
2021/10/18 11:48:27;;;;;;;12.00;7.30;;;12.80;99.90;;;;;;2585696;46;20030;31
2021/10/18 11:51:00;;;;;;;11.95;7.60;;;12.70;99.90;;;;;;2585608;54;20358;31
2021/10/18 11:53:31;;;;;;;14.80;8.57;;;12.70;99.90;;;;;;2586394;47;20054;31
2021/10/18 11:56:02;;;;;;;14.53;9.07;;;12.80;99.90;;;;;;2585856;54;20031;31
2021/10/18 11:58:37;;;;;;;16.23;9.50;;;12.80;99.90;;;;;;2585740;54;20865;31
2021/10/18 12:01:09;;;;;;;17.35;8.80;;;12.80;99.90;;;;;;2586295;47;20313;31
2021/10/18 12:03:39;;;;;;;14.55;8.30;;;12.90;99.90;;;;;;2585515;54;20986;31
2021/10/18 12:06:12;;;;;;;17.25;8.30;;;12.90;99.90;;;;;;2585671;54;20026;31
2021/10/18 12:08:47;;;;;;;11.98;6.75;;;13.00;99.90;;;;;;2586257;47;20982;31
2021/10/18 12:11:20;;;;;;;14.30;7.50;;;13.00;99.90;;;;;;2585787;54;20887;31
2021/10/18 12:13:51;;;;;;;11.80;6.67;;;13.10;99.90;;;;;;2585698;54;20251;31
2021/10/18 12:16:25;;;;;;;10.37;6.83;;;13.10;99.90;;;;;;2585609;54;20030;31
2021/10/18 12:18:59;;;;;;;11.25;6.70;;;13.10;99.90;;;;;;2585831;54;20023;31
2021/10/18 12:21:35;;;;;;;11.57;6.83;;;13.10;99.90;;;;;;2586243;47;20065;31
2021/10/18 12:24:05;;;;;;;12.23;6.22;;;13.20;99.90;;;;;;2586138;47;20753;31
2021/10/18 12:26:43;;;;;;;11.25;6.97;;;13.20;99.90;;;;;;2585651;54;20739;31
2021/10/18 12:29:18;;;;;;;11.57;5.90;;;13.20;99.90;;;;;;2586769;47;20031;31
2021/10/18 12:31:56;;;;;;;8.63;6.07;;;13.20;99.90;;;;;;2586859;46;20780;31
2021/10/18 12:34:28;;;;;;;11.60;5.90;;;13.20;99.90;;;;;;2586962;46;20881;31
2021/10/18 12:37:12;;;;;;;9.05;5.60;;;13.20;99.90;;;;;;2586906;46;19935;31
2021/10/18 12:39:56;;;;;;;8.02;5.20;;;13.30;99.90;;;;;;2586984;46;20821;31
2021/10/18 12:42:27;;;;;;;9.27;5.03;;;13.30;99.90;;;;;;2586645;46;20030;31
2021/10/18 12:45:02;;;;;;;11.45;4.88;;;13.30;99.90;;;;;;2586485;46;20046;31
2021/10/18 12:47:31;;;;;;;11.25;4.70;;;13.20;99.90;;;;;;2586518;54;20878;31
2021/10/18 12:50:08;;;;;;;12.80;5.50;;;13.20;99.90;;;;;;2586208;54;20105;31
2021/10/18 12:52:39;;;;;;;10.88;5.32;;;13.20;99.90;;;;;;2585724;54;20769;31
2021/10/18 12:55:26;;;;;;;9.27;5.50;;;13.20;99.90;;;;;;2586468;54;20031;31
2021/10/18 12:57:59;;;;;;;12.20;6.43;;;13.20;99.90;;;;;;2585682;54;20965;31
2021/10/18 13:00:32;;;;;;;8.00;4.95;;;13.20;99.90;;;;;;2586634;46;20077;31
2021/10/18 13:03:07;;;;;;;8.68;5.95;;;13.30;99.90;;;;;;2586439;54;20038;31
2021/10/18 13:05:41;;;;;;;10.20;5.78;;;13.30;99.90;;;;;;2586878;46;20756;31
2021/10/18 13:08:14;;;;;;;11.70;5.60;;;13.40;99.90;;;;;;2586800;46;20031;31
2021/10/18 13:10:50;;;;;;;9.23;5.55;;;13.40;99.90;;;;;;2585896;46;20102;31
2021/10/18 13:13:22;;;;;;;9.20;5.03;;;13.40;99.90;;;;;;2586269;54;20082;31
2021/10/18 13:15:53;;;;;;;12.65;4.80;;;13.50;99.90;;;;;;2586107;46;20054;31
2021/10/18 13:18:25;;;;;;;12.23;5.57;;;13.50;99.90;;;;;;2586677;46;20073;31
2021/10/18 13:21:00;;;;;;;8.40;4.70;;;13.60;99.90;;;;;;2586484;54;20862;31
2021/10/18 13:23:31;;;;;;;12.00;6.10;;;13.70;99.90;;;;;;2586918;46;21081;31
2021/10/18 13:26:04;;;;;;;7.95;4.78;;;13.80;99.90;;;;;;2591170;39;20247;31
2021/10/18 13:28:34;;;;;;;9.63;5.30;;;13.80;99.90;;;;;;2586394;46;20034;31
2021/10/18 13:31:04;;;;;;;8.13;4.83;;;13.80;99.90;;;;;;2586786;46;20879;31
2021/10/18 13:33:31;;;;;;;10.05;4.20;;;13.80;99.90;;;;;;2586258;46;20245;31
2021/10/18 13:36:03;;;;;;;7.53;4.28;;;13.80;99.90;;;;;;2586080;54;20898;31
2021/10/18 13:38:31;;;;;;;7.75;4.03;;;13.80;99.90;;;;;;2586707;46;20026;31
2021/10/18 13:41:03;;;;;;;10.35;3.25;;;13.80;99.90;;;;;;2585986;54;20039;31
2021/10/18 13:43:31;;;;;;;6.28;3.00;;;13.80;99.90;;;;;;2585934;54;20022;31
2021/10/18 13:46:01;;;;;;;10.50;3.00;;;13.80;99.90;;;;;;2586195;54;20038;31
2021/10/18 13:48:28;;;;;;;5.90;2.75;;;13.90;99.90;;;;;;2586323;46;20986;31
2021/10/18 13:50:59;;;;;;;7.95;3.10;;;13.80;99.90;;;;;;2586577;46;20931;31
2021/10/18 13:53:26;;;;;;;7.05;2.70;;;13.90;99.90;;;;;;2586381;46;20026;31
2021/10/18 13:55:55;;;;;;;5.15;2.47;;;13.90;99.90;;;;;;2586471;46;20116;31
2021/10/18 13:58:23;;;;;;;6.45;2.65;;;13.80;99.90;;;;;;2586391;46;20061;31
2021/10/18 14:00:54;;;;;;;7.35;2.45;;;13.80;99.90;;;;;;2586352;46;20042;31
2021/10/18 14:03:23;;;;;;;6.93;2.60;;;13.90;99.90;;;;;;2586011;54;20090;31
2021/10/18 14:05:52;;;;;;;8.38;2.35;;;13.80;99.90;;;;;;2586062;54;20867;31
2021/10/18 14:08:20;;;;;;;5.15;2.90;;;13.80;99.90;;;;;;2586367;46;19946;31
2021/10/18 14:10:52;;;;;;;5.87;3.10;;;13.80;99.90;;;;;;2586553;46;20034;31
2021/10/18 14:13:22;;;;;;;6.40;2.70;;;13.80;99.90;;;;;;2586441;46;20302;31
2021/10/18 14:15:50;;;;;;;6.87;2.40;;;13.80;99.90;;;;;;2585523;54;20048;31
2021/10/18 14:18:19;;;;;;;5.60;3.00;;;13.80;99.90;;;;;;2586480;46;20973;31
2021/10/18 14:20:50;;;;;;;4.80;2.90;;;13.70;99.90;;;;;;2586128;46;20042;31
2021/10/18 14:23:20;;;;;;;4.43;2.33;;;13.70;99.90;;;;;;2586456;46;20920;31
2021/10/18 14:25:51;;;;;;;8.85;2.80;;;13.70;99.90;;;;;;2586097;54;20850;31
2021/10/18 14:28:19;;;;;;;6.40;2.90;;;13.60;99.90;;;;;;2586199;46;20042;31
2021/10/18 14:30:50;;;;;;;5.07;3.27;;;13.70;99.90;;;;;;2586566;46;20915;31
2021/10/18 14:33:21;;;;;;;5.50;2.90;;;13.70;99.90;;;;;;2585789;54;20357;31
2021/10/18 14:35:51;;;;;;;5.95;3.00;;;13.80;99.90;;;;;;2586200;46;21219;31
2021/10/18 14:38:19;;;;;;;9.73;2.88;;;13.70;99.90;;;;;;2586075;46;20026;31
2021/10/18 14:40:51;;;;;;;6.28;2.70;;;13.60;99.90;;;;;;2586279;46;20877;31
2021/10/18 14:43:19;;;;;;;8.00;3.20;;;13.60;99.90;;;;;;2586377;47;20078;31
2021/10/18 14:45:49;;;;;;;4.65;2.83;;;13.60;99.90;;;;;;2585776;54;20050;31
2021/10/18 14:48:19;;;;;;;6.57;2.45;;;13.60;99.90;;;;;;2586137;46;20078;31
2021/10/18 14:50:49;;;;;;;8.67;4.30;;;13.60;99.90;;;;;;2585921;54;20858;31
2021/10/18 14:53:18;;;;;;;9.57;5.10;;;13.60;99.90;;;;;;2586165;46;20246;31
2021/10/18 14:55:59;;;;;;;8.10;4.60;;;13.50;99.90;;;;;;2586034;54;20074;31
2021/10/18 14:58:26;;;;;;;8.90;4.80;;;13.50;99.90;;;;;;2586365;46;20281;31
2021/10/18 15:00:55;;;;;;;8.07;4.60;;;13.50;99.90;;;;;;2586288;46;20337;31
2021/10/18 15:03:31;;;;;;;10.60;5.00;;;13.40;99.90;;;;;;2585974;54;20046;31
2021/10/18 15:06:01;;;;;;;11.90;5.00;;;13.40;99.90;;;;;;2586238;46;20925;31
2021/10/18 15:08:29;;;;;;;11.35;4.53;;;13.40;99.90;;;;;;2586385;46;21266;31
2021/10/18 15:10:58;;;;;;;7.07;3.75;;;13.40;99.90;;;;;;2585831;54;20838;31
2021/10/18 15:13:28;;;;;;;5.17;2.87;;;13.30;99.90;;;;;;2586152;46;20126;31
2021/10/18 15:15:58;;;;;;;8.43;3.30;;;13.30;99.90;;;;;;2585871;46;20046;31
2021/10/18 15:18:29;;;;;;;9.73;3.05;;;13.20;99.90;;;;;;2586099;46;20061;31
2021/10/18 15:20:58;;;;;;;6.20;3.20;;;13.20;99.90;;;;;;2585867;54;20069;31
2021/10/18 15:23:27;;;;;;;4.47;2.33;;;13.10;99.90;;;;;;2585737;54;21117;31
2021/10/18 15:25:56;;;;;;;4.60;2.30;;;13.10;99.90;;;;;;2586083;46;20089;31
2021/10/18 15:28:25;;;;;;;5.53;2.33;;;13.00;99.90;;;;;;2586032;46;20829;31
2021/10/18 15:30:54;;;;;;;4.57;2.53;;;13.00;99.90;;;;;;2585785;54;20038;31
2021/10/18 15:33:23;;;;;;;5.57;2.17;;;12.90;99.90;;;;;;2586191;46;20825;31
2021/10/18 15:35:51;;;;;;;5.20;2.10;;;12.90;99.90;;;;;;2607590;39;20030;31
2021/10/18 15:38:19;;;;;;;6.13;2.70;;;12.80;99.90;;;;;;2585924;46;20101;31
2021/10/18 15:40:49;;;;;;;5.60;2.40;;;12.80;99.90;;;;;;2586105;46;20800;31
2021/10/18 15:43:25;;;;;;;6.88;2.80;;;12.70;99.90;;;;;;2585714;54;20027;31
2021/10/18 15:46:01;;;;;;;9.13;2.38;;;12.80;99.90;;;;;;2586295;46;19934;31
2021/10/18 15:48:30;;;;;;;6.43;2.73;;;12.90;99.90;;;;;;2585227;46;20114;31
2021/10/18 15:51:02;;;;;;;5.38;2.60;;;12.80;99.90;;;;;;2585406;46;20247;31
2021/10/18 15:53:32;;;;;;;6.43;2.85;;;12.80;99.90;;;;;;2585452;46;20041;31
2021/10/18 15:56:02;;;;;;;6.75;3.22;;;12.70;99.90;;;;;;2585008;54;20851;31
2021/10/18 15:58:33;;;;;;;6.88;2.95;;;12.60;99.90;;;;;;2585878;46;20738;31
2021/10/18 16:01:03;;;;;;;5.75;2.83;;;12.50;99.90;;;;;;2585872;47;20036;31
2021/10/18 16:03:33;;;;;;;5.50;2.75;;;12.50;99.90;;;;;;2585449;54;20880;31
2021/10/18 16:06:04;;;;;;;11.80;3.15;;;12.40;99.90;;;;;;2585793;47;20034;31
2021/10/18 16:08:33;;;;;;;8.30;3.40;;;12.40;99.90;;;;;;2585522;54;20027;31
2021/10/18 16:11:03;;;;;;;6.43;2.95;;;12.40;99.90;;;;;;2585620;54;20246;31
2021/10/18 16:13:31;;;;;;;10.25;3.70;;;12.30;99.90;;;;;;2585773;47;20882;31
2021/10/18 16:16:02;;;;;;;6.30;3.22;;;12.20;99.90;;;;;;2585874;47;19934;31
2021/10/18 16:18:30;;;;;;;9.60;3.70;;;12.10;99.90;;;;;;2586074;47;20904;31
2021/10/18 16:20:58;;;;;;;9.00;4.75;;;12.10;99.90;;;;;;2585740;47;21003;31
2021/10/18 16:23:27;;;;;;;7.97;4.03;;;12.00;99.90;;;;;;2586055;47;20042;31
2021/10/18 16:25:56;;;;;;;7.43;4.20;;;11.90;99.90;;;;;;2586021;47;20034;31
2021/10/18 16:28:27;;;;;;;11.10;6.50;;;11.90;99.90;;;;;;2585942;47;20074;31
2021/10/18 16:30:56;;;;;;;12.50;6.03;;;11.80;99.90;;;;;;2585869;47;20082;31
2021/10/18 16:33:29;;;;;;;9.77;3.97;;;11.80;99.90;;;;;;2585685;47;20933;31
2021/10/18 16:35:57;;;;;;;8.38;5.50;;;11.70;99.90;;;;;;2586025;47;20081;31
2021/10/18 16:38:28;;;;;;;14.88;7.05;;;11.60;99.90;;;;;;2585593;47;20060;31
2021/10/18 16:40:57;;;;;;;13.00;6.35;;;11.60;99.90;;;;;;2585308;54;20031;31
2021/10/18 16:43:27;;;;;;;17.70;8.70;;;11.60;99.90;;;;;;2585917;47;20133;31
2021/10/18 16:45:58;;;;;;;21.90;10.25;;;11.50;99.90;;;;;;2585844;47;20042;31
2021/10/18 16:48:27;;;;;;;14.40;7.93;;;11.50;99.90;;;;;;2585274;54;20140;31
2021/10/18 16:50:58;;;;;;;12.97;7.30;;;11.50;99.90;;;;;;2585845;47;20918;31
2021/10/18 16:53:26;;;;;;;15.32;8.95;;;11.50;99.90;;;;;;2585431;54;20748;31
2021/10/18 16:55:57;;;;;;;10.97;7.17;;;11.50;99.90;;;;;;2585414;54;20027;31
2021/10/18 16:58:26;;;;;;;17.75;9.10;;;11.50;99.90;;;;;;2585453;54;20890;31
2021/10/18 17:00:55;;;;;;;18.35;9.75;;;11.40;99.90;;;;;;2585315;54;20006;31
2021/10/18 17:03:25;;;;;;;18.80;8.98;;;11.40;99.90;;;;;;2585560;54;20981;31
2021/10/18 17:05:54;;;;;;;12.40;7.55;;;11.40;99.90;;;;;;2585308;54;20947;31
2021/10/18 17:08:26;;;;;;;20.50;9.63;;;11.40;99.90;;;;;;2585279;54;20871;31
2021/10/18 17:10:56;;;;;;;15.13;8.02;;;11.30;99.90;;;;;;2585704;47;20794;31
2021/10/18 17:13:25;;;;;;;17.23;8.18;;;11.30;99.90;;;;;;2585592;47;20889;31
2021/10/18 17:15:55;;;;;;;15.63;8.40;;;11.20;99.90;;;;;;2585796;54;20026;31
2021/10/18 17:18:23;;;;;;;15.55;9.07;;;11.20;99.90;;;;;;2586719;46;20242;31
2021/10/18 17:20:54;;;;;;;17.50;8.90;;;11.20;99.90;;;;;;2586274;54;20035;31
2021/10/18 17:23:25;;;;;;;12.05;8.70;;;11.10;99.90;;;;;;2586547;46;20942;31
2021/10/18 17:25:53;;;;;;;15.55;8.90;;;11.10;99.90;;;;;;2586226;54;20043;31
2021/10/18 17:28:23;;;;;;;16.00;9.00;;;11.10;99.90;;;;;;2586555;46;20074;31
2021/10/18 17:30:53;;;;;;;14.60;8.90;;;11.10;99.90;;;;;;2586659;46;20963;31
2021/10/18 17:33:21;;;;;;;16.00;8.90;;;11.10;99.90;;;;;;2586458;46;20038;31
2021/10/18 17:35:49;;;;;;;14.70;9.63;;;11.00;99.90;;;;;;2586610;46;20070;31
2021/10/18 17:38:17;;;;;;;16.67;8.47;;;11.00;99.90;;;;;;2586563;46;20826;31
2021/10/18 17:40:48;;;;;;;16.80;8.85;;;11.00;99.90;;;;;;2586756;46;21303;31
2021/10/18 17:43:18;;;;;;;16.50;8.20;;;10.90;99.90;;;;;;2586730;46;20061;31
2021/10/18 17:45:46;;;;;;;13.30;8.88;;;10.90;99.90;;;;;;2585989;54;20053;31
2021/10/18 17:48:15;;;;;;;18.25;9.20;;;10.90;99.90;;;;;;2586429;46;20120;31
2021/10/18 17:50:43;;;;;;;18.40;9.10;;;10.90;99.90;;;;;;2586487;46;20026;31
2021/10/18 17:53:11;;;;;;;17.90;9.98;;;10.80;99.90;;;;;;2586400;46;20059;31
2021/10/18 17:55:41;;;;;;;21.77;12.70;;;10.80;99.90;;;;;;2626924;39;20090;31
2021/10/18 17:58:12;;;;;;;20.67;10.67;;;10.80;99.90;;;;;;2586161;54;20042;31
2021/10/18 18:00:43;;;;;;;21.50;11.13;;;10.80;99.90;;;;;;2586183;54;20053;31
2021/10/18 18:03:14;;;;;;;21.73;13.18;;;10.80;99.90;;;;;;2586070;54;20033;31
2021/10/18 18:05:44;;;;;;;25.50;14.30;;;10.70;99.90;;;;;;2586149;54;20049;31
2021/10/18 18:08:13;;;;;;;29.40;14.50;;;10.70;99.90;;;;;;2586585;46;20050;31
2021/10/18 18:10:42;;;;;;;22.00;12.40;;;10.70;99.90;;;;;;2586186;46;20899;31
2021/10/18 18:13:11;;;;;;;28.38;15.55;;;10.70;99.90;;;;;;2586472;46;20026;31
2021/10/18 18:15:42;;;;;;;27.48;12.38;;;10.70;99.90;;;;;;2585888;54;20937;31
2021/10/18 18:18:13;;;;;;;22.02;12.60;;;10.60;99.90;;;;;;2586511;46;20818;31
2021/10/18 18:20:41;;;;;;;21.45;13.20;;;10.60;99.90;;;;;;2586138;54;20937;31
2021/10/18 18:23:14;;;;;;;22.58;13.75;;;10.60;99.90;;;;;;2585976;54;20038;31
2021/10/18 18:25:45;;;;;;;24.30;13.98;;;10.50;99.90;;;;;;2585953;54;20811;31
2021/10/18 18:28:15;;;;;;;21.85;13.43;;;10.50;99.90;;;;;;2585748;46;20046;31
2021/10/18 18:30:45;;;;;;;21.90;13.48;;;10.50;99.90;;;;;;2586246;46;20884;31
2021/10/18 18:33:22;;;;;;;24.45;15.00;;;10.50;99.90;;;;;;2585805;54;20081;31
2021/10/18 18:35:51;;;;;;;24.23;15.10;;;10.50;99.90;;;;;;2586473;46;20074;31
2021/10/18 18:38:27;;;;;;;25.67;15.73;;;10.30;99.90;;;;;;2586654;46;20047;31
2021/10/18 18:41:00;;;;;;;31.15;18.35;;;10.30;99.90;;;;;;2586002;54;20023;31
2021/10/18 18:43:31;;;;;;;30.80;16.60;;;10.40;99.90;;;;;;2586505;46;20871;31
2021/10/18 18:46:01;;;;;;;24.60;15.43;;;10.40;99.90;;;;;;2585976;47;19939;31
2021/10/18 18:48:32;;;;;;;26.75;16.25;;;10.30;99.90;;;;;;2585923;54;20042;31
2021/10/18 18:51:02;;;;;;;27.95;16.60;;;10.30;99.90;;;;;;2585926;54;20030;31
2021/10/18 18:53:34;;;;;;;26.97;17.23;;;10.30;99.90;;;;;;2585704;54;20076;31
2021/10/18 18:56:04;;;;;;;31.57;19.33;;;10.30;99.90;;;;;;2586391;46;20049;31
2021/10/18 18:58:34;;;;;;;28.77;18.20;;;10.20;99.90;;;;;;2585903;54;20031;31
2021/10/18 19:01:04;;;;;;;26.52;17.42;;;10.20;99.90;;;;;;2585865;54;20057;31
2021/10/18 19:03:34;;;;;;;25.75;17.52;;;10.20;99.90;;;;;;2585909;54;20880;31
2021/10/18 19:06:06;;;;;;;29.08;17.88;;;10.20;99.90;;;;;;2586397;46;20754;31
2021/10/18 19:08:43;;;;;;;27.35;16.95;;;10.10;99.90;;;;;;2585979;54;20884;31
2021/10/18 19:11:14;;;;;;;25.67;17.02;;;10.10;99.90;;;;;;2585715;46;20046;31
2021/10/18 19:13:50;;;;;;;31.05;18.52;;;10.10;99.90;;;;;;2585818;54;20051;31
2021/10/18 19:16:21;;;;;;;29.45;19.35;;;10.10;99.90;;;;;;2586428;46;21014;31
2021/10/18 19:18:56;;;;;;;22.02;15.73;;;10.00;99.90;;;;;;2586401;46;20827;31
2021/10/18 19:21:27;;;;;;;25.17;16.27;;;10.00;99.90;;;;;;2585809;54;20030;31
2021/10/18 19:23:57;;;;;;;21.77;15.17;;;9.90;99.90;;;;;;2585968;54;20122;31
2021/10/18 19:26:28;;;;;;;25.45;15.50;;;9.90;99.90;;;;;;2585931;54;20043;31
2021/10/18 19:28:58;;;;;;;25.67;19.08;;;9.90;99.90;;;;;;2586440;46;20073;31
2021/10/18 19:31:28;;;;;;;29.50;19.52;;;9.90;99.90;;;;;;2585757;47;20102;31
2021/10/18 19:34:03;;;;;;;31.83;20.80;;;9.80;99.90;;;;;;2586070;46;20030;31
2021/10/18 19:36:34;;;;;;;34.35;23.35;;;9.80;99.90;;;;;;2586053;46;20040;31
2021/10/18 19:39:04;;;;;;;29.80;18.35;;;9.70;99.90;;;;;;2585407;54;20031;31
2021/10/18 19:41:33;;;;;;;35.55;22.20;;;9.70;99.90;;;;;;2586214;46;20773;31
2021/10/18 19:44:06;;;;;;;32.75;22.10;;;9.70;99.90;;;;;;2585803;54;20066;31
2021/10/18 19:46:37;;;;;;;29.23;20.02;;;9.60;99.90;;;;;;2585840;54;20238;31
2021/10/18 19:49:06;;;;;;;28.90;18.85;;;9.60;99.90;;;;;;2585550;47;20042;31
2021/10/18 19:51:43;;;;;;;31.40;20.70;;;9.60;99.90;;;;;;2585744;54;20915;31
2021/10/18 19:54:13;;;;;;;30.25;20.05;;;9.60;99.90;;;;;;2585835;47;20943;31
2021/10/18 19:56:44;;;;;;;30.20;20.63;;;9.50;99.90;;;;;;2585066;54;20905;31
2021/10/18 19:59:15;;;;;;;31.38;19.60;;;9.50;99.90;;;;;;2585475;47;20101;31
2021/10/18 20:01:49;;;;;;;25.90;19.02;;;9.50;99.90;;;;;;2585410;46;20948;31
2021/10/18 20:04:29;;;;;;;26.63;17.93;;;9.50;99.90;;;;;;2585658;54;20089;31
2021/10/18 20:07:01;;;;;;;29.65;18.40;;;9.50;99.90;;;;;;2585488;46;20969;31
2021/10/18 20:09:35;;;;;;;35.35;21.40;;;9.40;99.90;;;;;;2585838;47;20026;31
2021/10/18 20:12:07;;;;;;;34.15;21.45;;;9.40;99.90;;;;;;2585751;54;20838;31
2021/10/18 20:14:40;;;;;;;29.43;20.27;;;9.40;99.90;;;;;;2585980;47;20844;31
